Alcova, Wyoming
Current Conditions -  °F | °C
As of 5:53 PM on Saturday 25 Oct 2014 (Local Time) from KCPR Reporting Station
Clear Clear  
Wind Chill: 21°   Ceiling: Unl
Heat Index: 21°   Visibility: 10mi
Dew Point: -6°   Wind: 16mph
Humidity: 17%   Direction: 210°SSW
Pressure: 29.97"   Gusts: NA
Location:  42.55°N, 106.72°W
Report Text: KCPR 252353Z 21014KT 10SM CLR 21/M06 A2997 RMK AO2 SLP106 T02061056 10250 20206 57019
Loading
Personal Weather Stations






























Interactive Weather Map
Tropical Storm Tracking
New forecast layout! Learn more

10-Day Weather Forecast

Advertisements
Track Severe Weather on mobile